West Salem, Wisconsin
Current Conditions -  °F | °C
As of 4:53 AM on Thursday 23 Oct 2014 (Local Time) from KLSE Reporting Station
Light Rain Light Rain  
Wind Chill: 11°   Ceiling: 5500
Heat Index: 11°   Visibility: 10mi
Dew Point:   Wind: 3mph
Humidity: 74%   Direction: 140°SE
Pressure: 30.08"   Gusts: NA
Location:  43.9°N, 91.08°W
Report Text: KLSE 230953Z AUTO 14003KT 10SM -RA FEW030 SCT045 OVC055 11/06 A3008 RMK AO2 RAB49 SLP186 P0000 T01060061
Loading
Personal Weather Stations






























Interactive Weather Map
Tropical Storm Tracking
New forecast layout! Learn more

10-Day Weather Forecast

Advertisements
Track Severe Weather on mobile